createdAt,value
2022-12-24T00:02:10.028Z,16.45
2022-12-24T00:04:36.820Z,18.30
2022-12-24T00:07:04.081Z,14.10
2022-12-24T00:09:30.943Z,18.98
2022-12-24T00:11:57.699Z,23.23
2022-12-24T00:14:25.355Z,20.23
2022-12-24T00:16:52.127Z,18.37
2022-12-24T00:19:18.893Z,12.27
2022-12-24T00:21:45.618Z,21.17
2022-12-24T00:24:12.433Z,19.40
2022-12-24T00:26:39.129Z,18.10
2022-12-24T00:29:06.111Z,18.53
2022-12-24T00:31:32.916Z,20.30
2022-12-24T00:33:59.678Z,12.57
2022-12-24T00:36:26.424Z,19.17
2022-12-24T00:38:53.251Z,16.15
2022-12-24T00:41:26.431Z,18.50
2022-12-24T00:43:58.883Z,16.15
2022-12-24T00:46:27.230Z,19.38
2022-12-24T00:48:54.079Z,21.42
2022-12-24T00:51:21.752Z,17.17
2022-12-24T00:53:49.231Z,16.13
2022-12-24T00:56:16.244Z,15.68
2022-12-24T00:58:43.160Z,16.65
2022-12-24T01:01:10.040Z,13.77
2022-12-24T01:03:36.953Z,20.55
2022-12-24T01:06:09.038Z,23.53
2022-12-24T01:08:36.414Z,15.45
2022-12-24T01:11:04.782Z,16.83
2022-12-24T01:13:31.969Z,13.13
2022-12-24T01:15:58.843Z,14.60
2022-12-24T01:18:25.767Z,13.20
2022-12-24T01:21:01.101Z,13.40
2022-12-24T01:23:29.365Z,11.30
2022-12-24T01:25:59.490Z,16.77
2022-12-24T01:28:26.227Z,18.45
2022-12-24T01:30:53.104Z,13.07
2022-12-24T01:33:20.020Z,20.35
2022-12-24T01:35:46.920Z,19.42
2022-12-24T01:38:14.236Z,17.52
2022-12-24T01:41:00.336Z,16.10
2022-12-24T01:43:29.824Z,18.53
2022-12-24T01:46:12.999Z,18.00
2022-12-24T01:48:46.902Z,15.25
2022-12-24T01:51:19.755Z,13.07
2022-12-24T01:53:52.220Z,31.98
2022-12-24T01:56:21.055Z,16.50
2022-12-24T01:58:54.971Z,23.08
2022-12-24T02:01:22.020Z,23.17
2022-12-24T02:03:49.287Z,17.70
2022-12-24T02:06:17.751Z,24.77
2022-12-24T02:08:45.517Z,19.10
2022-12-24T02:11:18.872Z,20.88
2022-12-24T02:13:52.103Z,12.60
2022-12-24T02:16:42.719Z,15.13
2022-12-24T02:19:49.869Z,23.08
2022-12-24T02:22:44.271Z,14.13
2022-12-24T02:25:26.766Z,12.00
2022-12-24T02:28:30.818Z,19.75
2022-12-24T02:31:04.983Z,18.85
2022-12-24T02:34:00.605Z,26.45
2022-12-24T02:36:40.746Z,22.53
2022-12-24T02:39:20.835Z,22.23
2022-12-24T02:42:07.072Z,27.45
2022-12-24T02:45:01.745Z,17.25
2022-12-24T02:47:33.577Z,20.17
2022-12-24T02:50:02.225Z,22.63
2022-12-24T02:52:29.780Z,17.92
2022-12-24T02:54:58.904Z,19.05
2022-12-24T02:58:04.401Z,18.27
2022-12-24T03:00:56.408Z,25.15
2022-12-24T03:04:00.897Z,26.40
2022-12-24T03:06:48.608Z,26.77
2022-12-24T03:09:26.362Z,26.45
2022-12-24T03:12:24.306Z,22.92
2022-12-24T03:14:51.632Z,29.88
2022-12-24T03:17:19.813Z,28.90
2022-12-24T03:19:47.891Z,36.25
2022-12-24T03:22:17.099Z,26.42
2022-12-24T03:24:43.990Z,31.10
2022-12-24T03:27:13.384Z,43.42
2022-12-24T03:29:41.439Z,38.57
2022-12-24T03:32:08.232Z,36.70
2022-12-24T03:34:34.998Z,24.02
2022-12-24T03:37:01.796Z,31.45
2022-12-24T03:39:28.563Z,35.47
2022-12-24T03:41:55.296Z,35.77
2022-12-24T03:44:22.089Z,25.38
2022-12-24T03:46:49.359Z,32.65
2022-12-24T03:49:16.151Z,35.28
2022-12-24T03:51:42.894Z,26.67
2022-12-24T03:54:09.561Z,24.43
2022-12-24T03:56:36.294Z,30.30
2022-12-24T03:59:03.229Z,35.20
2022-12-24T04:01:30.541Z,27.75
2022-12-24T04:03:57.444Z,30.17
2022-12-24T04:06:24.365Z,32.93
2022-12-24T04:08:51.121Z,23.55
2022-12-24T04:11:18.414Z,32.17
2022-12-24T04:13:45.437Z,28.60
2022-12-24T04:16:14.988Z,38.22
2022-12-24T04:18:42.285Z,33.00
2022-12-24T04:21:09.881Z,26.33
2022-12-24T04:23:38.579Z,27.52
2022-12-24T04:26:08.648Z,28.27
2022-12-24T04:28:36.074Z,27.65
2022-12-24T04:31:06.585Z,34.07
2022-12-24T04:33:33.692Z,28.13
2022-12-24T04:36:02.083Z,26.65
2022-12-24T04:38:29.949Z,24.33
2022-12-24T04:41:05.428Z,32.50
2022-12-24T04:43:32.621Z,19.07
2022-12-24T04:46:17.918Z,23.08
2022-12-24T04:48:50.469Z,20.30
2022-12-24T04:51:18.521Z,22.33
2022-12-24T04:53:45.686Z,24.88
2022-12-24T04:56:17.971Z,29.90
2022-12-24T04:58:45.311Z,18.58
2022-12-24T05:01:19.083Z,26.83
2022-12-24T05:03:46.208Z,23.42
2022-12-24T05:06:15.964Z,19.48
2022-12-24T05:08:43.770Z,31.77
2022-12-24T05:11:14.304Z,24.65
2022-12-24T05:13:47.589Z,25.55
2022-12-24T05:16:15.869Z,25.00
2022-12-24T05:18:43.132Z,25.15
2022-12-24T05:21:14.997Z,25.90
2022-12-24T05:24:00.378Z,23.38
2022-12-24T05:26:29.472Z,23.60
2022-12-24T05:28:57.424Z,28.17
2022-12-24T05:31:25.866Z,30.10
2022-12-24T05:33:54.744Z,23.87
2022-12-24T05:36:23.026Z,29.67
2022-12-24T05:38:50.023Z,30.83
2022-12-24T05:41:17.162Z,31.80
2022-12-24T05:43:44.003Z,31.88
2022-12-24T05:46:14.982Z,28.47
2022-12-24T05:48:42.381Z,32.33
2022-12-24T05:51:11.332Z,30.80
2022-12-24T05:53:38.547Z,29.13
2022-12-24T05:56:07.528Z,27.38
2022-12-24T05:58:34.741Z,32.83
2022-12-24T06:01:03.375Z,33.90
2022-12-24T06:03:31.435Z,33.30
2022-12-24T06:06:06.344Z,29.75
2022-12-24T06:08:34.104Z,32.17
2022-12-24T06:11:03.188Z,29.83
2022-12-24T06:13:30.248Z,30.70
2022-12-24T06:15:58.713Z,32.63
2022-12-24T06:18:26.149Z,26.98
2022-12-24T06:20:54.141Z,36.63
2022-12-24T06:23:22.239Z,29.67
2022-12-24T06:25:49.552Z,34.92
2022-12-24T06:28:17.267Z,45.40
2022-12-24T06:30:48.723Z,38.78
2022-12-24T06:33:16.966Z,42.40
2022-12-24T06:35:46.572Z,30.27
2022-12-24T06:38:14.224Z,34.38
2022-12-24T06:40:43.247Z,40.80
2022-12-24T06:43:10.583Z,37.47
2022-12-24T06:45:37.393Z,38.72
2022-12-24T06:48:04.788Z,37.53
2022-12-24T06:50:32.663Z,33.30
2022-12-24T06:52:59.518Z,37.55
2022-12-24T06:55:26.196Z,31.90
2022-12-24T06:57:52.901Z,43.92
2022-12-24T07:00:21.743Z,37.87
2022-12-24T07:02:48.733Z,34.92
2022-12-24T07:05:16.073Z,41.47
2022-12-24T07:07:44.964Z,35.53
2022-12-24T07:10:14.861Z,36.05
2022-12-24T07:12:42.342Z,30.70
2022-12-24T07:15:11.761Z,36.53
2022-12-24T07:17:38.808Z,36.88
2022-12-24T07:20:07.578Z,32.42
2022-12-24T07:22:34.377Z,36.92
2022-12-24T07:25:01.137Z,32.13
2022-12-24T07:27:27.878Z,32.17
2022-12-24T07:29:54.601Z,39.53
2022-12-24T07:32:21.317Z,30.55
2022-12-24T07:34:48.171Z,28.65
2022-12-24T07:37:14.954Z,38.37
2022-12-24T07:39:41.715Z,39.67
2022-12-24T07:42:08.608Z,32.17
2022-12-24T07:44:35.476Z,37.33
2022-12-24T07:47:02.668Z,35.00
2022-12-24T07:49:29.596Z,38.80
2022-12-24T07:51:56.362Z,38.50
2022-12-24T07:54:23.284Z,32.45
2022-12-24T07:56:50.124Z,36.15
2022-12-24T07:59:17.099Z,44.63
2022-12-24T08:01:48.273Z,26.30
2022-12-24T08:04:15.222Z,35.15
2022-12-24T08:06:41.953Z,35.55
2022-12-24T08:09:08.928Z,39.30
2022-12-24T08:11:35.634Z,37.97
2022-12-24T08:14:02.394Z,30.97
2022-12-24T08:16:29.192Z,35.33
2022-12-24T08:18:56.193Z,27.75
2022-12-24T08:21:22.953Z,35.72
2022-12-24T08:23:49.904Z,35.67
2022-12-24T08:26:16.625Z,40.27
2022-12-24T08:28:45.510Z,34.70
2022-12-24T08:31:12.328Z,33.33
2022-12-24T08:33:39.141Z,32.95
2022-12-24T08:36:06.222Z,33.58
2022-12-24T08:38:33.001Z,36.93
2022-12-24T08:40:59.829Z,33.40
2022-12-24T08:43:26.933Z,38.22
2022-12-24T08:45:54.184Z,26.42
2022-12-24T08:48:21.295Z,34.90
2022-12-24T08:50:48.097Z,35.03
2022-12-24T08:53:15.005Z,30.95
2022-12-24T08:55:42.393Z,35.63
2022-12-24T08:58:09.178Z,28.13
2022-12-24T09:00:36.904Z,29.73
2022-12-24T09:03:04.261Z,35.33
2022-12-24T09:05:31.582Z,21.08
2022-12-24T09:07:58.641Z,28.83
2022-12-24T09:10:25.981Z,27.75
2022-12-24T09:12:52.696Z,30.27
2022-12-24T09:15:19.481Z,30.47
2022-12-24T09:17:46.259Z,23.15
2022-12-24T09:20:13.110Z,25.58
2022-12-24T09:22:40.352Z,28.23
2022-12-24T09:25:08.778Z,30.83
2022-12-24T09:27:35.703Z,26.87
2022-12-24T09:30:02.510Z,28.10
2022-12-24T09:32:29.363Z,23.65
2022-12-24T09:34:56.119Z,28.05
2022-12-24T09:37:23.014Z,30.15
2022-12-24T09:39:49.813Z,20.23
2022-12-24T09:42:34.266Z,28.55
2022-12-24T09:45:04.156Z,31.80
2022-12-24T09:47:43.042Z,24.25
2022-12-24T09:50:30.005Z,25.20
2022-12-24T09:52:58.642Z,34.37
2022-12-24T09:55:36.980Z,22.13
2022-12-24T09:58:06.738Z,25.92
2022-12-24T10:00:37.589Z,26.55
2022-12-24T10:03:16.338Z,21.23
2022-12-24T10:06:03.505Z,24.43
2022-12-24T10:08:41.621Z,23.70
2022-12-24T10:11:17.402Z,26.50
2022-12-24T10:13:52.764Z,26.88
2022-12-24T10:16:41.506Z,19.58
2022-12-24T10:19:23.165Z,26.40
2022-12-24T10:22:06.350Z,23.52
2022-12-24T10:25:03.978Z,19.23
2022-12-24T10:27:37.679Z,23.15
2022-12-24T10:30:19.602Z,21.77
2022-12-24T10:32:49.858Z,16.30
2022-12-24T10:35:16.565Z,27.50
2022-12-24T10:37:52.906Z,17.98
2022-12-24T10:40:28.685Z,23.95
2022-12-24T10:42:55.454Z,23.08
2022-12-24T10:45:25.712Z,21.73
2022-12-24T10:47:57.276Z,20.42
2022-12-24T10:50:34.983Z,17.10
2022-12-24T10:53:18.855Z,18.30
2022-12-24T10:55:47.591Z,15.88
2022-12-24T10:58:18.882Z,14.23
2022-12-24T11:00:53.329Z,21.42
2022-12-24T11:03:33.305Z,18.83
2022-12-24T11:06:22.770Z,18.10
2022-12-24T11:08:49.510Z,14.75
2022-12-24T11:11:20.291Z,18.93
2022-12-24T11:13:49.904Z,17.00
2022-12-24T11:16:29.738Z,14.75
2022-12-24T11:18:59.506Z,14.20
2022-12-24T11:21:30.152Z,19.80
2022-12-24T11:24:08.095Z,22.53
2022-12-24T11:26:39.676Z,12.68
2022-12-24T11:29:26.986Z,12.45
2022-12-24T11:32:36.727Z,18.08
2022-12-24T11:35:07.330Z,20.17
2022-12-24T11:37:34.342Z,19.47
2022-12-24T11:40:02.439Z,15.32
2022-12-24T11:42:35.391Z,11.43
2022-12-24T11:45:08.603Z,8.90
2022-12-24T11:47:38.167Z,18.08
2022-12-24T11:50:35.577Z,11.63
2022-12-24T11:53:27.649Z,17.77
2022-12-24T11:55:59.483Z,19.35
2022-12-24T11:58:53.874Z,19.30
2022-12-24T12:01:57.067Z,14.48
2022-12-24T12:04:30.076Z,11.50
2022-12-24T12:07:14.822Z,17.92
2022-12-24T12:09:47.960Z,16.35
2022-12-24T12:12:21.442Z,17.05
2022-12-24T12:14:53.854Z,16.05
2022-12-24T12:17:32.613Z,22.23
2022-12-24T12:20:18.755Z,16.85
2022-12-24T12:22:49.570Z,14.45
2022-12-24T12:25:48.324Z,10.85
2022-12-24T12:28:35.339Z,11.27
2022-12-24T12:31:15.752Z,12.83
2022-12-24T12:33:48.854Z,19.20
2022-12-24T12:36:20.982Z,18.90
2022-12-24T12:38:48.922Z,15.05
2022-12-24T12:41:23.772Z,14.02
2022-12-24T12:44:14.390Z,17.57
2022-12-24T12:46:50.365Z,13.43
2022-12-24T12:49:44.817Z,9.82
2022-12-24T12:52:20.634Z,11.43
2022-12-24T12:55:10.807Z,10.88
2022-12-24T12:57:40.239Z,11.33
2022-12-24T13:00:13.908Z,18.67
2022-12-24T13:03:18.495Z,12.27
2022-12-24T13:06:00.346Z,9.38
2022-12-24T13:08:58.371Z,15.85
2022-12-24T13:11:57.302Z,14.53
2022-12-24T13:14:44.855Z,17.90
2022-12-24T13:17:17.578Z,15.93
2022-12-24T13:20:05.996Z,22.20
2022-12-24T13:22:32.783Z,14.70
2022-12-24T13:24:59.613Z,18.93
2022-12-24T13:27:32.646Z,15.60
2022-12-24T13:30:29.515Z,19.80
2022-12-24T13:32:56.328Z,20.08
2022-12-24T13:35:23.040Z,15.85
2022-12-24T13:37:51.026Z,18.20
2022-12-24T13:40:24.339Z,17.88
2022-12-24T13:43:04.800Z,19.33
2022-12-24T13:45:34.434Z,15.35
2022-12-24T13:48:07.047Z,20.85
2022-12-24T13:50:51.786Z,20.23
2022-12-24T13:53:29.455Z,21.88
2022-12-24T13:56:01.821Z,19.63
2022-12-24T13:58:28.942Z,19.38
2022-12-24T14:01:36.037Z,23.88
2022-12-24T14:04:05.550Z,25.23
2022-12-24T14:06:35.676Z,21.58
2022-12-24T14:09:11.299Z,24.98
2022-12-24T14:12:01.393Z,25.85
2022-12-24T14:14:32.635Z,18.38
2022-12-24T14:17:02.275Z,20.27
2022-12-24T14:19:52.338Z,15.98
2022-12-24T14:22:25.175Z,26.90
2022-12-24T14:24:59.404Z,20.15
2022-12-24T14:27:39.698Z,19.92
2022-12-24T14:30:28.637Z,19.10
2022-12-24T14:32:55.732Z,24.65
2022-12-24T14:35:30.757Z,18.33
2022-12-24T14:38:04.434Z,19.48
2022-12-24T14:40:34.749Z,22.10
2022-12-24T14:43:18.634Z,22.53
2022-12-24T14:46:09.560Z,20.40
2022-12-24T14:49:00.888Z,27.48
2022-12-24T14:51:42.953Z,18.95
2022-12-24T14:54:41.403Z,21.75
2022-12-24T14:57:10.941Z,20.07
2022-12-24T15:00:02.360Z,16.45
2022-12-24T15:02:42.078Z,20.13
2022-12-24T15:05:19.701Z,27.90
2022-12-24T15:07:55.004Z,21.17
2022-12-24T15:10:31.063Z,19.03
2022-12-24T15:13:01.953Z,23.10
2022-12-24T15:15:29.271Z,21.65
2022-12-24T15:17:57.954Z,18.98
2022-12-24T15:20:27.451Z,23.60
2022-12-24T15:22:56.425Z,28.00
2022-12-24T15:25:24.733Z,22.70
2022-12-24T15:27:52.108Z,19.38
2022-12-24T15:30:23.024Z,20.48
2022-12-24T15:32:58.005Z,31.42
2022-12-24T15:35:55.634Z,21.10
2022-12-24T15:38:27.095Z,29.40
2022-12-24T15:40:55.069Z,29.08
2022-12-24T15:43:22.498Z,25.23
2022-12-24T15:45:49.812Z,28.67
2022-12-24T15:48:38.327Z,26.27
2022-12-24T15:51:06.446Z,29.25
2022-12-24T15:53:43.890Z,26.10
2022-12-24T15:56:47.155Z,25.98
2022-12-24T15:59:38.112Z,25.13
2022-12-24T16:02:54.620Z,31.53
2022-12-24T16:05:32.380Z,28.10
2022-12-24T16:08:14.301Z,24.20
2022-12-24T16:11:16.172Z,29.13
2022-12-24T16:14:04.454Z,22.70
2022-12-24T16:16:43.105Z,29.67
2022-12-24T16:19:35.866Z,25.10
2022-12-24T16:22:24.804Z,30.00
2022-12-24T16:24:55.591Z,30.33
2022-12-24T16:27:22.456Z,31.67
2022-12-24T16:29:50.428Z,30.27
2022-12-24T16:32:35.117Z,29.33
2022-12-24T16:35:04.190Z,28.13
2022-12-24T16:37:31.286Z,33.08
2022-12-24T16:39:59.071Z,29.98
2022-12-24T16:42:44.860Z,33.17
2022-12-24T16:45:11.724Z,29.33
2022-12-24T16:47:42.778Z,29.13
2022-12-24T16:50:16.274Z,34.30
2022-12-24T16:52:43.609Z,38.88
2022-12-24T16:55:13.981Z,26.00
2022-12-24T16:57:42.112Z,28.98
2022-12-24T17:00:21.372Z,35.92
2022-12-24T17:02:49.492Z,34.42
2022-12-24T17:05:16.604Z,38.08
2022-12-24T17:07:44.319Z,46.43
2022-12-24T17:10:14.253Z,46.35
2022-12-24T17:12:41.465Z,38.42
2022-12-24T17:15:08.679Z,29.00
2022-12-24T17:17:35.550Z,37.75
2022-12-24T17:20:04.709Z,34.40
2022-12-24T17:22:31.826Z,33.42
2022-12-24T17:24:58.781Z,35.55
2022-12-24T17:27:25.757Z,42.05
2022-12-24T17:29:52.941Z,31.40
2022-12-24T17:32:19.813Z,40.67
2022-12-24T17:34:46.661Z,40.25
2022-12-24T17:37:13.434Z,49.75
2022-12-24T17:39:40.394Z,35.60
2022-12-24T17:42:07.296Z,39.30
2022-12-24T17:44:34.332Z,47.57
2022-12-24T17:47:01.978Z,39.08
2022-12-24T17:49:29.807Z,45.22
2022-12-24T17:51:56.739Z,38.75
2022-12-24T17:54:23.922Z,51.17
2022-12-24T17:56:50.634Z,39.07
2022-12-24T17:59:17.399Z,38.70
2022-12-24T18:01:44.296Z,41.63
2022-12-24T18:04:11.125Z,40.38
2022-12-24T18:06:43.051Z,32.60
2022-12-24T18:09:14.207Z,45.50
2022-12-24T18:11:40.972Z,41.40
2022-12-24T18:14:08.266Z,43.83
2022-12-24T18:16:38.161Z,43.67
2022-12-24T18:19:08.158Z,50.17
2022-12-24T18:21:35.026Z,47.57
2022-12-24T18:24:02.170Z,50.28
2022-12-24T18:26:30.574Z,45.05
2022-12-24T18:28:59.086Z,46.70
2022-12-24T18:31:26.866Z,51.92
2022-12-24T18:33:55.983Z,55.50
2022-12-24T18:36:23.371Z,48.83
2022-12-24T18:38:50.344Z,45.42
2022-12-24T18:41:20.701Z,49.08
2022-12-24T18:43:48.262Z,41.53
2022-12-24T18:46:22.436Z,41.97
2022-12-24T18:48:49.666Z,52.53
2022-12-24T18:51:17.502Z,42.80
2022-12-24T18:53:44.295Z,51.03
2022-12-24T18:56:13.448Z,49.42
2022-12-24T18:58:42.300Z,44.87
2022-12-24T19:01:13.188Z,41.47
2022-12-24T19:03:40.099Z,47.05
2022-12-24T19:06:07.633Z,44.30
2022-12-24T19:11:22.434Z,38.80
2022-12-24T19:13:49.914Z,38.05
2022-12-24T19:16:18.093Z,43.75
2022-12-24T19:18:45.237Z,44.17
2022-12-24T19:21:14.185Z,47.83
2022-12-24T19:23:40.967Z,40.77
2022-12-24T19:26:11.271Z,48.78
2022-12-24T19:28:38.673Z,40.47
2022-12-24T19:31:17.588Z,44.80
2022-12-24T19:33:46.672Z,46.22
2022-12-24T19:36:16.286Z,43.67
2022-12-24T19:38:43.432Z,45.70
2022-12-24T19:41:12.935Z,42.72
2022-12-24T19:43:49.082Z,52.95
2022-12-24T19:46:19.185Z,47.90
2022-12-24T19:48:51.362Z,47.33
2022-12-24T19:51:18.704Z,42.35
2022-12-24T19:53:45.918Z,38.95
2022-12-24T19:56:16.104Z,42.50
2022-12-24T19:58:44.312Z,38.15
2022-12-24T20:01:22.781Z,42.47
2022-12-24T20:03:51.287Z,48.58
2022-12-24T20:06:20.297Z,51.28
2022-12-24T20:08:47.234Z,42.90
2022-12-24T20:11:17.517Z,41.58
2022-12-24T20:13:45.106Z,43.90
2022-12-24T20:16:20.414Z,55.10
2022-12-24T20:19:01.565Z,50.78
2022-12-24T20:21:28.947Z,45.55
2022-12-24T20:23:55.916Z,49.75
2022-12-24T20:26:27.965Z,45.47
2022-12-24T20:28:55.041Z,52.78
2022-12-24T20:31:29.853Z,50.88
2022-12-24T20:33:58.159Z,48.63
2022-12-24T20:36:26.035Z,48.42
2022-12-24T20:38:53.281Z,59.63
2022-12-24T20:41:22.236Z,45.40
2022-12-24T20:43:49.191Z,55.72
2022-12-24T20:46:17.813Z,43.88
2022-12-24T20:48:44.682Z,43.47
2022-12-24T20:51:22.718Z,55.57
2022-12-24T20:53:51.288Z,54.83
2022-12-24T20:56:18.659Z,55.75
2022-12-24T20:58:45.924Z,46.08
2022-12-24T21:01:16.859Z,53.38
2022-12-24T21:03:44.177Z,46.93
2022-12-24T21:06:11.038Z,50.30
2022-12-24T21:08:37.772Z,44.47
2022-12-24T21:11:23.052Z,45.58
2022-12-24T21:13:49.923Z,47.17
2022-12-24T21:16:16.736Z,50.00
2022-12-24T21:18:43.480Z,43.92
2022-12-24T21:21:10.240Z,55.00
2022-12-24T21:23:37.024Z,40.50
2022-12-24T21:26:05.411Z,47.97
2022-12-24T21:28:33.136Z,55.33
2022-12-24T21:31:00.021Z,50.03
2022-12-24T21:33:27.049Z,45.38
2022-12-24T21:36:00.090Z,41.95
2022-12-24T21:38:33.118Z,46.08
2022-12-24T21:41:13.017Z,43.87
2022-12-24T21:43:40.439Z,46.72
2022-12-24T21:46:13.769Z,41.05
2022-12-24T21:49:01.368Z,49.70
2022-12-24T21:51:28.802Z,46.95
2022-12-24T21:54:14.670Z,50.20
2022-12-24T21:57:04.955Z,42.90
2022-12-24T21:59:31.830Z,52.50
2022-12-24T22:02:00.971Z,48.03
2022-12-24T22:04:27.948Z,43.13
2022-12-24T22:07:13.337Z,46.10
2022-12-24T22:09:59.426Z,48.38
2022-12-24T22:12:30.045Z,47.95
2022-12-24T22:14:56.742Z,47.90
2022-12-24T22:17:25.777Z,41.03
2022-12-24T22:19:54.121Z,48.43
2022-12-24T22:22:21.322Z,46.90
2022-12-24T22:24:48.280Z,37.00
2022-12-24T22:27:15.096Z,42.75
2022-12-24T22:29:41.794Z,40.47
2022-12-24T22:32:08.588Z,33.20
2022-12-24T22:34:36.639Z,37.35
2022-12-24T22:37:03.625Z,39.22
2022-12-24T22:39:30.455Z,58.60
2022-12-24T22:41:57.996Z,44.70
2022-12-24T22:44:25.102Z,44.90
2022-12-24T22:46:51.937Z,45.10
2022-12-24T22:49:18.766Z,47.33
2022-12-24T22:51:45.564Z,41.05
2022-12-24T22:54:12.302Z,40.78
2022-12-24T22:56:41.489Z,37.73
2022-12-24T22:59:12.249Z,44.88
2022-12-24T23:01:41.883Z,41.42
2022-12-24T23:04:08.844Z,35.80
2022-12-24T23:06:35.738Z,47.92
2022-12-24T23:09:04.240Z,33.50
2022-12-24T23:11:31.213Z,35.58
2022-12-24T23:14:16.495Z,40.60
2022-12-24T23:16:43.230Z,40.75
2022-12-24T23:19:10.764Z,35.95
2022-12-24T23:21:38.527Z,41.93
2022-12-24T23:24:06.300Z,37.47
2022-12-24T23:26:33.031Z,36.90
2022-12-24T23:28:59.777Z,61.95
2022-12-24T23:31:27.072Z,51.67
2022-12-24T23:33:54.120Z,42.57
2022-12-24T23:36:21.248Z,38.00
2022-12-24T23:38:48.379Z,37.22
2022-12-24T23:41:18.000Z,36.05
2022-12-24T23:43:45.534Z,42.60
2022-12-24T23:46:17.169Z,37.87
2022-12-24T23:48:45.909Z,35.00
2022-12-24T23:51:16.159Z,45.47
2022-12-24T23:53:43.496Z,40.22
2022-12-24T23:56:11.590Z,45.53
2022-12-24T23:58:40.905Z,36.33
